Churchill, Virginia
Current Conditions -  °F | °C
As of 11:54 PM on Friday 24 Oct 2014 (Local Time) from KRIC Reporting Station
Few Clouds Few Clouds  
Wind Chill: 48°   Ceiling: Unl
Heat Index: 48°   Visibility: 10mi
Dew Point: 44°   Wind: 0mph
Humidity: 86%   Direction: NA
Pressure: 29.96"   Gusts: NA
Location:  37.556°N, 77.3779°W
Report Text: KRIC 250354Z 00000KT 10SM FEW300 09/07 A2996 RMK AO2 SLP151 T00890067
Loading
Personal Weather Stations






























Interactive Weather Map
Tropical Storm Tracking
New forecast layout! Learn more

10-Day Weather Forecast

Advertisements
Track Severe Weather on mobile